Time;durP1;ratioP1;P1;durP2;ratioP2;P2;SDS_P1;SDS_P2;PMS_P1;PMS_P2;Temp;Humidity;BMP_temperature;BMP_pressure;BME280_temperature;BME280_humidity;BME280_pressure;Samples;Min_cycle;Max_cycle;Signal;HPM_P1;HPM_P2
2022/04/14 00:00:12;;;;;;;0.00;0.00;;;13.40;99.90;;;;;;5002764;28;20231;-74
2022/04/14 00:02:39;;;;;;;0.00;0.00;;;13.20;99.90;;;;;;5004876;28;20205;-73
2022/04/14 00:05:07;;;;;;;0.10;0.10;;;13.20;99.90;;;;;;5003095;28;20208;-73
2022/04/14 00:07:36;;;;;;;0.00;0.00;;;12.90;99.90;;;;;;5002833;28;20239;-74
2022/04/14 00:10:04;;;;;;;0.10;0.10;;;12.80;99.90;;;;;;5004064;28;20209;-73
2022/04/14 00:12:31;;;;;;;0.10;0.10;;;12.70;99.90;;;;;;4996669;28;20212;-73
2022/04/14 00:14:58;;;;;;;0.10;0.10;;;12.70;99.90;;;;;;5001393;28;20239;-73
2022/04/14 00:17:25;;;;;;;0.10;0.10;;;12.60;99.90;;;;;;5002807;28;20208;-73
2022/04/14 00:19:52;;;;;;;0.00;0.00;;;12.70;99.90;;;;;;5002948;28;21292;-73
2022/04/14 00:22:20;;;;;;;0.00;0.00;;;12.60;99.90;;;;;;4999105;28;20204;-74
2022/04/14 00:24:48;;;;;;;0.00;0.00;;;12.60;99.90;;;;;;5000639;28;20223;-73
2022/04/14 00:27:18;;;;;;;0.00;0.00;;;12.70;99.90;;;;;;5018141;28;20233;-73
2022/04/14 00:29:45;;;;;;;0.10;0.10;;;12.70;99.90;;;;;;5003974;28;20198;-73
2022/04/14 00:32:12;;;;;;;0.10;0.10;;;12.80;99.90;;;;;;4998462;28;20200;-75
2022/04/14 00:34:39;;;;;;;0.10;0.10;;;12.90;99.90;;;;;;5004208;28;20221;-74
2022/04/14 00:37:09;;;;;;;0.00;0.00;;;13.10;99.90;;;;;;5008037;28;20205;-73
2022/04/14 00:39:36;;;;;;;0.10;0.10;;;13.20;99.90;;;;;;5004196;28;20196;-74
2022/04/14 00:42:09;;;;;;;0.10;0.10;;;13.30;99.90;;;;;;5001697;28;20681;-74
2022/04/14 00:44:37;;;;;;;0.03;0.03;;;13.30;99.90;;;;;;5017878;28;20224;-74
2022/04/14 00:47:04;;;;;;;0.10;0.10;;;13.40;99.90;;;;;;4996586;28;20310;-74
2022/04/14 00:49:32;;;;;;;0.00;0.00;;;13.40;99.90;;;;;;4996837;28;20212;-74
2022/04/14 00:52:00;;;;;;;0.10;0.10;;;13.40;99.90;;;;;;5003485;28;20217;-73
2022/04/14 00:54:28;;;;;;;0.10;0.10;;;13.40;99.90;;;;;;5000429;28;20276;-74
2022/04/14 00:56:56;;;;;;;0.10;0.10;;;13.30;99.90;;;;;;5005066;28;20197;-74
2022/04/14 00:59:25;;;;;;;0.10;0.10;;;13.30;99.90;;;;;;4994563;28;20198;-74
2022/04/14 01:01:52;;;;;;;0.00;0.00;;;13.40;99.90;;;;;;4995327;28;20197;-73
2022/04/14 01:04:20;;;;;;;0.03;0.03;;;13.30;99.90;;;;;;4999885;28;20232;-73
2022/04/14 01:06:48;;;;;;;0.00;0.00;;;13.30;99.90;;;;;;5001045;28;20380;-73
2022/04/14 01:09:19;;;;;;;0.10;0.10;;;13.20;99.90;;;;;;5000554;28;20209;-74
2022/04/14 01:11:47;;;;;;;0.10;0.10;;;13.20;99.90;;;;;;5017564;28;20285;-73
2022/04/14 01:14:20;;;;;;;0.00;0.00;;;13.20;99.90;;;;;;4998375;28;20220;-74
2022/04/14 01:16:49;;;;;;;0.10;0.10;;;13.10;99.90;;;;;;5003191;28;20215;-74
2022/04/14 01:19:16;;;;;;;0.00;0.00;;;13.20;99.90;;;;;;5004076;28;20207;-74
2022/04/14 01:21:46;;;;;;;0.10;0.10;;;13.20;99.90;;;;;;4995191;28;20197;-73
2022/04/14 01:24:15;;;;;;;0.00;0.00;;;13.10;99.90;;;;;;5018622;28;20242;-74
2022/04/14 01:26:43;;;;;;;0.10;0.10;;;13.10;99.90;;;;;;5016130;28;20230;-73
2022/04/14 01:29:21;;;;;;;0.07;0.07;;;13.10;99.90;;;;;;5000081;28;20220;-73
2022/04/14 01:31:48;;;;;;;0.10;0.10;;;13.10;99.90;;;;;;5014582;28;20209;-73
2022/04/14 01:34:15;;;;;;;0.10;0.10;;;13.00;99.90;;;;;;4997609;28;20231;-73
2022/04/14 01:36:42;;;;;;;0.10;0.10;;;13.00;99.90;;;;;;5001897;28;20193;-72
2022/04/14 01:39:11;;;;;;;0.03;0.03;;;12.90;99.90;;;;;;5002676;28;20760;-74
2022/04/14 01:41:40;;;;;;;0.10;0.10;;;12.90;99.90;;;;;;5002080;28;20218;-72
2022/04/14 01:44:08;;;;;;;0.10;0.10;;;12.90;99.90;;;;;;4998659;28;20228;-73
2022/04/14 01:46:36;;;;;;;0.10;0.10;;;12.80;99.90;;;;;;4996025;28;20280;-74
2022/04/14 01:49:03;;;;;;;0.10;0.10;;;12.80;99.90;;;;;;4997638;28;20196;-73
2022/04/14 01:51:31;;;;;;;0.00;0.00;;;12.90;99.90;;;;;;5003900;28;20220;-73
2022/04/14 01:53:58;;;;;;;0.10;0.10;;;12.80;99.90;;;;;;5002526;28;20220;-72
2022/04/14 01:56:25;;;;;;;0.10;0.10;;;12.80;99.90;;;;;;4996259;28;20283;-72
2022/04/14 01:58:53;;;;;;;0.10;0.10;;;12.80;99.90;;;;;;5003895;28;20287;-72
2022/04/14 02:01:21;;;;;;;0.10;0.10;;;12.80;99.90;;;;;;5000328;28;20201;-74
2022/04/14 02:03:49;;;;;;;0.10;0.10;;;12.70;99.90;;;;;;5001894;28;20220;-73
2022/04/14 02:06:16;;;;;;;0.10;0.10;;;12.70;99.90;;;;;;5000264;28;20255;-73
2022/04/14 02:08:43;;;;;;;0.10;0.10;;;12.80;99.90;;;;;;5000846;28;20235;-73
2022/04/14 02:11:11;;;;;;;0.10;0.10;;;12.80;99.90;;;;;;5015802;28;20208;-73
2022/04/14 02:13:38;;;;;;;0.07;0.07;;;12.70;99.90;;;;;;5016901;28;20745;-73
2022/04/14 02:16:07;;;;;;;0.10;0.10;;;12.80;99.90;;;;;;5007912;28;20202;-74
2022/04/14 02:18:34;;;;;;;0.10;0.10;;;12.70;99.90;;;;;;4995851;28;20213;-73
2022/04/14 02:21:01;;;;;;;0.00;0.00;;;12.70;99.90;;;;;;4997099;28;20204;-73
2022/04/14 02:23:28;;;;;;;0.10;0.10;;;12.60;99.90;;;;;;5003955;28;20223;-72
2022/04/14 02:25:55;;;;;;;0.00;0.00;;;12.60;99.90;;;;;;4996180;28;20213;-72
2022/04/14 02:28:22;;;;;;;0.10;0.10;;;12.60;99.90;;;;;;5000840;28;20224;-72
2022/04/14 02:30:49;;;;;;;0.10;0.10;;;12.60;99.90;;;;;;5004710;28;20200;-73
2022/04/14 02:33:18;;;;;;;0.10;0.10;;;12.70;99.90;;;;;;4992296;28;20271;-73
2022/04/14 02:35:45;;;;;;;0.00;0.00;;;12.60;99.90;;;;;;5005923;28;20338;-74
2022/04/14 02:38:12;;;;;;;0.10;0.10;;;12.60;99.90;;;;;;5002003;28;20192;-73
2022/04/14 02:40:39;;;;;;;0.03;0.03;;;12.60;99.90;;;;;;4998977;28;20272;-73
2022/04/14 02:43:06;;;;;;;0.10;0.10;;;12.60;99.90;;;;;;4997668;28;20221;-73
2022/04/14 02:45:33;;;;;;;0.10;0.10;;;12.70;99.90;;;;;;4996514;28;20292;-73
2022/04/14 02:48:00;;;;;;;0.00;0.00;;;12.70;99.90;;;;;;5000186;28;20231;-73
2022/04/14 02:50:29;;;;;;;0.10;0.10;;;12.60;99.90;;;;;;5006683;28;20196;-73
2022/04/14 02:52:56;;;;;;;0.10;0.10;;;12.50;99.90;;;;;;4999733;28;20219;-73
2022/04/14 02:55:23;;;;;;;0.10;0.10;;;12.50;99.90;;;;;;4994548;28;20205;-73
2022/04/14 02:57:51;;;;;;;0.10;0.10;;;12.50;99.90;;;;;;5000087;28;20211;-72
2022/04/14 03:00:18;;;;;;;0.10;0.10;;;12.40;99.90;;;;;;5001715;28;20208;-73
2022/04/14 03:02:45;;;;;;;0.10;0.10;;;12.40;99.90;;;;;;4998339;28;20292;-72
2022/04/14 03:05:12;;;;;;;0.10;0.10;;;12.40;99.90;;;;;;5000795;28;20204;-73
2022/04/14 03:07:41;;;;;;;0.10;0.10;;;12.40;99.90;;;;;;5000192;28;20229;-73
2022/04/14 03:10:09;;;;;;;0.10;0.10;;;12.40;99.90;;;;;;5005202;28;20594;-73
2022/04/14 03:12:44;;;;;;;0.10;0.10;;;12.40;99.90;;;;;;4999679;28;20204;-72
2022/04/14 03:15:11;;;;;;;0.10;0.10;;;12.30;99.90;;;;;;4996139;28;20335;-72
2022/04/14 03:17:38;;;;;;;0.10;0.10;;;12.30;99.90;;;;;;5004046;28;20193;-72
2022/04/14 03:20:07;;;;;;;0.10;0.10;;;12.30;99.90;;;;;;4999674;28;20315;-72
2022/04/14 03:22:34;;;;;;;0.10;0.10;;;12.20;99.90;;;;;;4998450;28;20288;-71
2022/04/14 03:25:05;;;;;;;0.10;0.10;;;12.20;99.90;;;;;;5002600;28;20224;-71
2022/04/14 03:27:32;;;;;;;0.10;0.10;;;12.20;99.90;;;;;;4999152;28;20224;-72
2022/04/14 03:29:59;;;;;;;0.10;0.10;;;;;;;;;;4995760;28;20209;-72
2022/04/14 03:32:26;;;;;;;0.10;0.10;;;12.30;99.90;;;;;;5003243;28;20196;-73
2022/04/14 03:34:54;;;;;;;0.10;0.10;;;12.10;99.90;;;;;;5011320;28;20224;-73
2022/04/14 03:37:21;;;;;;;0.10;0.10;;;12.10;99.90;;;;;;5003087;28;20197;-72
2022/04/14 03:39:48;;;;;;;0.10;0.10;;;12.10;99.90;;;;;;5004330;28;20203;-73
2022/04/14 03:42:17;;;;;;;0.10;0.10;;;12.10;99.90;;;;;;5002598;28;20212;-73
2022/04/14 03:44:44;;;;;;;0.07;0.07;;;12.10;99.90;;;;;;4998723;28;20274;-73
2022/04/14 03:47:11;;;;;;;0.10;0.10;;;12.10;99.90;;;;;;4992159;28;20232;-73
2022/04/14 03:49:38;;;;;;;0.10;0.10;;;12.10;99.90;;;;;;5014944;28;20212;-72
2022/04/14 03:52:06;;;;;;;0.10;0.10;;;12.10;99.90;;;;;;5003716;28;20254;-73
2022/04/14 03:54:33;;;;;;;0.00;0.00;;;12.20;99.90;;;;;;5000484;28;20217;-73
2022/04/14 03:57:00;;;;;;;0.10;0.10;;;12.20;99.90;;;;;;5001169;28;20207;-72
2022/04/14 03:59:29;;;;;;;0.10;0.10;;;12.10;99.90;;;;;;5001989;28;20207;-73
2022/04/14 04:01:57;;;;;;;0.10;0.10;;;12.20;99.90;;;;;;5004215;28;20195;-72
2022/04/14 04:04:24;;;;;;;0.10;0.10;;;12.10;99.90;;;;;;5001234;28;20231;-68
2022/04/14 04:06:51;;;;;;;0.00;0.00;;;12.10;99.90;;;;;;5001071;28;20208;-71
2022/04/14 04:09:21;;;;;;;0.10;0.10;;;12.20;99.90;;;;;;4997059;28;20236;-70
2022/04/14 04:11:50;;;;;;;0.03;0.03;;;12.10;99.90;;;;;;4996045;28;20205;-70
2022/04/14 04:14:17;;;;;;;0.10;0.10;;;12.20;99.90;;;;;;4995723;28;20250;-66
2022/04/14 04:16:45;;;;;;;0.10;0.10;;;12.10;99.90;;;;;;5003042;28;20205;-71
2022/04/14 04:19:12;;;;;;;0.10;0.10;;;12.20;99.90;;;;;;4998892;28;20208;-69
2022/04/14 04:21:40;;;;;;;0.10;0.10;;;12.10;99.90;;;;;;5002360;28;20580;-70
2022/04/14 04:24:07;;;;;;;0.10;0.10;;;12.10;99.90;;;;;;4997970;28;20312;-69
2022/04/14 04:26:35;;;;;;;0.10;0.10;;;12.20;99.90;;;;;;5002227;28;20202;-69
2022/04/14 04:29:02;;;;;;;0.10;0.10;;;12.20;99.90;;;;;;5002538;28;20328;-69
2022/04/14 04:31:29;;;;;;;0.07;0.07;;;12.20;99.90;;;;;;5001105;28;20216;-69
2022/04/14 04:33:57;;;;;;;0.10;0.10;;;12.30;99.90;;;;;;5006158;28;20224;-71
2022/04/14 04:36:25;;;;;;;0.10;0.10;;;12.20;99.90;;;;;;4998614;28;20204;-69
2022/04/14 04:38:52;;;;;;;0.03;0.03;;;12.20;99.90;;;;;;5008307;28;20200;-69
2022/04/14 04:41:19;;;;;;;0.10;0.10;;;12.30;99.90;;;;;;5000159;28;20228;-70
2022/04/14 04:43:46;;;;;;;0.10;0.10;;;12.30;99.90;;;;;;5002769;28;20226;-74
2022/04/14 04:46:15;;;;;;;0.10;0.10;;;12.40;99.90;;;;;;5005328;28;20258;-73
2022/04/14 04:48:42;;;;;;;0.10;0.10;;;12.40;99.90;;;;;;5001571;28;20214;-72
2022/04/14 04:51:11;;;;;;;0.10;0.10;;;12.30;99.90;;;;;;5006033;28;20201;-74
2022/04/14 04:53:38;;;;;;;0.10;0.10;;;12.50;99.90;;;;;;5006377;28;20220;-72
2022/04/14 04:56:05;;;;;;;0.10;0.10;;;12.40;99.90;;;;;;5008462;28;20200;-74
2022/04/14 04:58:33;;;;;;;0.10;0.10;;;12.50;99.90;;;;;;4999296;28;20239;-73
2022/04/14 05:01:00;;;;;;;0.10;0.10;;;12.50;99.90;;;;;;5000062;28;20212;-77
2022/04/14 05:03:27;;;;;;;0.10;0.10;;;12.50;99.90;;;;;;5019924;28;20225;-71
2022/04/14 05:05:54;;;;;;;0.03;0.03;;;12.60;99.90;;;;;;5007139;28;20623;-72
2022/04/14 05:08:22;;;;;;;0.10;0.10;;;12.70;99.90;;;;;;5008421;28;20303;-71
2022/04/14 05:10:49;;;;;;;0.03;0.03;;;12.60;99.90;;;;;;5019682;28;20242;-70
2022/04/14 05:13:16;;;;;;;0.10;0.10;;;12.70;99.90;;;;;;5003370;28;20217;-71
2022/04/14 05:15:43;;;;;;;0.10;0.10;;;12.70;99.90;;;;;;5003838;28;20201;-71
2022/04/14 05:18:11;;;;;;;0.10;0.10;;;12.70;99.90;;;;;;5001203;28;20274;-72
2022/04/14 05:20:38;;;;;;;0.10;0.10;;;12.70;99.90;;;;;;5000318;28;20197;-71
2022/04/14 05:23:08;;;;;;;0.00;0.00;;;12.70;99.90;;;;;;5002511;28;20228;-71
2022/04/14 05:25:37;;;;;;;0.10;0.10;;;12.80;99.90;;;;;;4998517;28;20233;-72
2022/04/14 05:28:04;;;;;;;0.10;0.10;;;12.90;99.90;;;;;;4999599;28;20217;-72
2022/04/14 05:30:32;;;;;;;0.10;0.10;;;12.90;99.90;;;;;;5005179;28;20612;-71
2022/04/14 05:32:59;;;;;;;0.10;0.10;;;13.00;99.90;;;;;;4996033;28;20201;-69
2022/04/14 05:35:26;;;;;;;0.10;0.10;;;13.00;99.90;;;;;;5003851;28;20196;-70
2022/04/14 05:37:53;;;;;;;0.10;0.10;;;13.00;99.90;;;;;;5000719;28;20205;-70
2022/04/14 05:40:20;;;;;;;0.10;0.10;;;13.10;99.90;;;;;;5002421;28;20220;-70
2022/04/14 05:42:53;;;;;;;0.10;0.10;;;13.10;99.90;;;;;;5000884;28;20200;-70
2022/04/14 05:45:21;;;;;;;0.07;0.07;;;13.00;99.90;;;;;;5001417;28;20205;-69
2022/04/14 05:47:48;;;;;;;0.10;0.10;;;13.20;99.90;;;;;;4993246;28;20305;-69
2022/04/14 05:50:16;;;;;;;0.00;0.00;;;13.10;99.90;;;;;;5003709;28;20217;-70
2022/04/14 05:52:43;;;;;;;0.10;0.10;;;13.00;99.90;;;;;;4998445;28;20202;-70
2022/04/14 05:55:10;;;;;;;0.03;0.03;;;13.10;99.90;;;;;;4998101;28;20284;-71
2022/04/14 05:57:37;;;;;;;0.10;0.10;;;13.10;99.90;;;;;;4995861;28;20192;-70
2022/04/14 06:00:08;;;;;;;0.10;0.10;;;13.10;99.90;;;;;;4998793;28;20209;-71
2022/04/14 06:02:36;;;;;;;0.07;0.07;;;13.10;99.90;;;;;;4997188;28;20255;-71
2022/04/14 06:05:03;;;;;;;0.10;0.10;;;13.10;99.90;;;;;;4999543;28;20221;-70
2022/04/14 06:07:30;;;;;;;0.10;0.10;;;13.00;99.90;;;;;;5000715;28;20201;-70
2022/04/14 06:09:57;;;;;;;0.10;0.10;;;13.00;99.90;;;;;;5009584;28;20209;-71
2022/04/14 06:12:24;;;;;;;0.10;0.10;;;13.00;99.90;;;;;;4992205;28;20205;-70
2022/04/14 06:14:51;;;;;;;0.10;0.10;;;13.00;99.90;;;;;;4991377;28;20276;-70
2022/04/14 06:17:20;;;;;;;0.10;0.10;;;13.10;99.90;;;;;;5000063;28;20205;-71
2022/04/14 06:19:47;;;;;;;0.10;0.10;;;13.00;99.90;;;;;;5001726;28;20201;-71
2022/04/14 06:22:15;;;;;;;0.10;0.10;;;13.10;99.90;;;;;;4997934;28;20201;-70
2022/04/14 06:24:42;;;;;;;0.10;0.10;;;13.10;99.90;;;;;;4993733;28;20260;-70
2022/04/14 06:27:09;;;;;;;0.00;0.00;;;13.20;99.90;;;;;;4994209;28;20292;-71
2022/04/14 06:29:37;;;;;;;0.07;0.07;;;13.20;99.90;;;;;;4994088;28;20236;-69
2022/04/14 06:32:04;;;;;;;0.10;0.10;;;13.20;99.90;;;;;;4995909;28;20196;-69
2022/04/14 06:34:33;;;;;;;0.10;0.10;;;13.40;99.90;;;;;;4995043;28;20227;-70
2022/04/14 06:37:00;;;;;;;0.10;0.10;;;13.40;99.90;;;;;;4994897;28;20193;-70
2022/04/14 06:39:28;;;;;;;0.10;0.10;;;13.60;99.90;;;;;;5002164;28;20196;-70
2022/04/14 06:41:55;;;;;;;0.10;0.10;;;13.70;99.90;;;;;;4995913;28;20212;-71
2022/04/14 06:44:24;;;;;;;0.10;0.10;;;13.70;99.90;;;;;;4997993;28;20224;-71
2022/04/14 06:46:51;;;;;;;0.10;0.10;;;13.80;99.90;;;;;;4994838;28;20232;-70
2022/04/14 06:49:19;;;;;;;0.10;0.10;;;13.90;99.90;;;;;;5001033;28;20225;-70
2022/04/14 06:51:47;;;;;;;0.10;0.10;;;14.00;99.90;;;;;;4996852;28;20197;-70
2022/04/14 06:54:15;;;;;;;0.00;0.00;;;14.10;99.90;;;;;;5010552;28;20224;-71
2022/04/14 06:56:42;;;;;;;0.10;0.10;;;14.30;99.90;;;;;;5016435;28;20207;-70
2022/04/14 06:59:09;;;;;;;0.10;0.10;;;14.40;99.90;;;;;;4996441;28;20247;-71
2022/04/14 07:01:37;;;;;;;0.00;0.00;;;14.30;99.90;;;;;;5002760;28;20200;-71
2022/04/14 07:04:05;;;;;;;0.00;0.00;;;14.30;99.90;;;;;;5000570;28;20216;-70
2022/04/14 07:06:33;;;;;;;0.10;0.10;;;14.30;99.90;;;;;;4999762;28;20205;-69
2022/04/14 07:09:01;;;;;;;0.10;0.10;;;14.30;99.90;;;;;;4998427;28;20213;-72
2022/04/14 07:11:28;;;;;;;0.07;0.07;;;14.40;99.90;;;;;;4999849;28;20201;-70
2022/04/14 07:13:55;;;;;;;0.00;0.00;;;14.30;99.90;;;;;;5014678;28;20225;-69
2022/04/14 07:16:23;;;;;;;0.10;0.10;;;14.40;99.90;;;;;;5001329;28;20205;-69
2022/04/14 07:18:50;;;;;;;0.10;0.10;;;14.20;99.90;;;;;;5028161;22;20211;-75
2022/04/14 07:21:17;;;;;;;0.10;0.10;;;14.40;99.90;;;;;;5025329;28;20196;-76
2022/04/14 07:23:45;;;;;;;0.10;0.10;;;14.20;99.90;;;;;;5026525;28;20196;-75
2022/04/14 07:26:14;;;;;;;0.10;0.10;;;14.30;99.90;;;;;;5026124;28;20211;-76
2022/04/14 07:28:42;;;;;;;0.10;0.10;;;14.30;99.90;;;;;;5026274;28;20208;-78
2022/04/14 07:31:10;;;;;;;0.03;0.03;;;14.20;99.90;;;;;;5024546;28;20254;-76
2022/04/14 07:33:39;;;;;;;0.00;0.00;;;14.50;99.90;;;;;;5027573;28;20184;-76
2022/04/14 07:36:07;;;;;;;0.10;0.10;;;14.20;99.90;;;;;;5026221;28;20223;-76
2022/04/14 07:38:35;;;;;;;0.10;0.10;;;14.30;99.90;;;;;;5026470;28;20203;-76
2022/04/14 07:41:05;;;;;;;0.10;0.10;;;14.20;99.90;;;;;;5028844;23;20229;-69
2022/04/14 07:43:34;;;;;;;0.10;0.10;;;14.30;99.90;;;;;;5013430;28;20225;-70
2022/04/14 07:46:03;;;;;;;0.00;0.00;;;14.20;99.90;;;;;;5001040;28;20729;-70
2022/04/14 07:48:33;;;;;;;0.10;0.10;;;14.10;99.90;;;;;;5016038;28;20233;-70
2022/04/14 07:51:01;;;;;;;0.10;0.10;;;14.10;99.90;;;;;;4999492;28;20204;-70
2022/04/14 07:53:28;;;;;;;0.00;0.00;;;14.10;99.90;;;;;;4998671;28;20750;-70
2022/04/14 07:55:55;;;;;;;0.00;0.00;;;14.20;99.90;;;;;;4999464;28;20205;-70
2022/04/14 07:58:22;;;;;;;0.10;0.10;;;14.00;99.90;;;;;;5001833;28;20196;-70
2022/04/14 08:00:51;;;;;;;0.10;0.10;;;14.00;99.90;;;;;;4997499;28;20208;-70
2022/04/14 08:03:18;;;;;;;0.10;0.10;;;13.90;99.90;;;;;;4987111;28;20217;-70
2022/04/14 08:05:48;;;;;;;0.00;0.00;;;13.90;99.90;;;;;;4991931;28;20295;-70
2022/04/14 08:08:17;;;;;;;0.00;0.00;;;13.90;99.90;;;;;;4998158;28;20366;-70
2022/04/14 08:10:46;;;;;;;0.00;0.00;;;13.90;99.90;;;;;;5002391;28;20251;-70
2022/04/14 08:13:13;;;;;;;0.00;0.00;;;13.90;99.90;;;;;;4995119;28;20224;-70
2022/04/14 08:15:42;;;;;;;0.00;0.00;;;13.90;99.90;;;;;;5006497;28;20292;-70
2022/04/14 08:18:11;;;;;;;0.10;0.10;;;13.80;99.90;;;;;;5003462;28;20292;-70
2022/04/14 08:20:40;;;;;;;0.00;0.00;;;13.90;99.90;;;;;;4997745;28;20208;-70
2022/04/14 08:23:11;;;;;;;0.10;0.10;;;13.80;99.90;;;;;;5003114;28;20223;-69
2022/04/14 08:25:38;;;;;;;0.00;0.00;;;13.70;99.90;;;;;;4999332;28;20736;-68
2022/04/14 08:28:07;;;;;;;0.10;0.10;;;13.70;99.90;;;;;;4999055;28;20200;-68
2022/04/14 08:30:37;;;;;;;0.00;0.00;;;13.70;99.90;;;;;;4999546;28;20291;-68
2022/04/14 08:33:07;;;;;;;0.10;0.10;;;13.70;99.90;;;;;;5013976;28;20250;-69
2022/04/14 08:35:36;;;;;;;0.10;0.10;;;13.70;99.90;;;;;;5003282;28;20224;-67
2022/04/14 08:38:06;;;;;;;0.10;0.10;;;13.70;99.90;;;;;;5003005;28;20212;-69
2022/04/14 08:40:35;;;;;;;0.10;0.10;;;13.60;99.90;;;;;;5001590;28;20288;-68
2022/04/14 08:43:04;;;;;;;0.10;0.10;;;13.50;99.90;;;;;;4996050;28;20221;-69
2022/04/14 08:45:34;;;;;;;0.00;0.00;;;13.60;99.90;;;;;;5000038;28;20209;-70
2022/04/14 08:48:02;;;;;;;0.07;0.07;;;13.60;99.90;;;;;;5002486;28;20279;-70
2022/04/14 08:50:30;;;;;;;0.00;0.00;;;13.50;99.90;;;;;;5000227;28;20586;-70
2022/04/14 08:53:00;;;;;;;0.10;0.10;;;13.50;99.90;;;;;;5001542;28;20189;-71
2022/04/14 08:55:29;;;;;;;0.10;0.10;;;13.60;99.90;;;;;;5016216;28;20208;-71
2022/04/14 08:57:57;;;;;;;0.00;0.00;;;13.40;99.90;;;;;;4993306;28;20201;-70
2022/04/14 09:00:24;;;;;;;0.00;0.00;;;13.50;99.90;;;;;;5013213;28;20193;-72
2022/04/14 09:02:56;;;;;;;0.03;0.03;;;13.50;99.90;;;;;;4999646;28;20243;-72
2022/04/14 09:05:23;;;;;;;0.00;0.00;;;13.40;99.90;;;;;;5009964;28;20267;-70
2022/04/14 09:07:52;;;;;;;0.00;0.00;;;13.60;99.90;;;;;;5014198;28;20212;-70
2022/04/14 09:10:21;;;;;;;0.10;0.10;;;13.70;99.90;;;;;;4995435;28;20229;-71
2022/04/14 09:12:49;;;;;;;0.10;0.10;;;13.50;99.90;;;;;;4993263;28;20208;-72
2022/04/14 09:15:18;;;;;;;0.10;0.10;;;13.50;99.90;;;;;;4997386;28;20216;-70
2022/04/14 09:17:45;;;;;;;0.10;0.10;;;13.60;99.90;;;;;;4997463;28;20274;-71
2022/04/14 09:20:34;;;;;;;0.10;0.10;;;13.60;99.90;;;;;;4997389;28;20201;-72
2022/04/14 09:23:18;;;;;;;0.10;0.10;;;13.60;99.90;;;;;;4998009;28;20205;-70
2022/04/14 09:25:49;;;;;;;0.10;0.10;;;13.50;99.90;;;;;;5001887;28;20197;-71
2022/04/14 09:28:17;;;;;;;0.10;0.10;;;13.50;99.90;;;;;;5002304;28;20205;-70
2022/04/14 09:31:00;;;;;;;0.10;0.10;;;13.60;99.90;;;;;;5005691;28;20224;-72
2022/04/14 09:33:27;;;;;;;0.10;0.10;;;13.70;99.90;;;;;;5001936;28;20216;-72
2022/04/14 09:36:09;;;;;;;0.10;0.10;;;13.60;99.90;;;;;;4997411;28;20201;-71
2022/04/14 09:38:57;;;;;;;0.00;0.00;;;13.60;99.90;;;;;;4998437;28;20204;-72
2022/04/14 09:41:31;;;;;;;0.00;0.00;;;13.50;99.90;;;;;;4998072;28;20204;-71
2022/04/14 09:43:59;;;;;;;0.10;0.10;;;13.60;99.90;;;;;;4998738;28;20216;-71
2022/04/14 09:46:27;;;;;;;0.10;0.10;;;13.50;99.90;;;;;;5016458;28;20205;-71
2022/04/14 09:49:03;;;;;;;0.00;0.00;;;13.70;99.90;;;;;;5015598;28;20223;-71
2022/04/14 09:51:32;;;;;;;0.10;0.10;;;13.60;99.90;;;;;;5002420;28;20207;-71
2022/04/14 09:54:04;;;;;;;0.10;0.10;;;13.60;99.90;;;;;;5003191;28;20220;-71
2022/04/14 09:56:46;;;;;;;0.00;0.00;;;13.70;99.90;;;;;;5002788;28;20294;-71
2022/04/14 09:59:17;;;;;;;0.10;0.10;;;13.70;99.90;;;;;;5002766;28;20207;-71
2022/04/14 10:01:45;;;;;;;0.10;0.10;;;13.80;99.90;;;;;;5000876;28;20227;-71
2022/04/14 10:04:35;;;;;;;0.10;0.10;;;13.90;99.90;;;;;;4999432;28;20231;-70
2022/04/14 10:07:04;;;;;;;0.00;0.00;;;13.80;99.90;;;;;;5000982;28;20208;-70
2022/04/14 10:09:33;;;;;;;0.10;0.10;;;13.80;99.90;;;;;;5018089;28;20220;-70
2022/04/14 10:12:06;;;;;;;0.07;0.07;;;13.70;99.90;;;;;;4998425;28;20217;-70
2022/04/14 10:14:36;;;;;;;0.10;0.10;;;13.80;99.90;;;;;;5001158;28;20308;-70
2022/04/14 10:17:05;;;;;;;0.03;0.03;;;13.70;99.90;;;;;;4998416;28;20204;-70
2022/04/14 10:19:34;;;;;;;0.10;0.10;;;14.00;99.90;;;;;;5000720;28;20201;-71
2022/04/14 10:22:02;;;;;;;0.10;0.10;;;13.90;99.90;;;;;;4998894;28;20291;-70
2022/04/14 10:24:31;;;;;;;0.00;0.00;;;13.80;99.90;;;;;;5000091;28;20217;-70
2022/04/14 10:27:06;;;;;;;0.10;0.10;;;14.20;99.90;;;;;;5002201;28;20197;-70
2022/04/14 10:29:35;;;;;;;0.10;0.10;;;13.90;99.90;;;;;;5000258;28;20216;-71
2022/04/14 10:32:08;;;;;;;0.10;0.10;;;13.80;99.90;;;;;;4999698;28;20201;-71
2022/04/14 10:34:36;;;;;;;0.10;0.10;;;14.00;99.90;;;;;;4997938;28;20247;-71
2022/04/14 10:37:08;;;;;;;0.10;0.10;;;13.80;99.90;;;;;;5015761;28;20213;-71
2022/04/14 10:39:40;;;;;;;0.00;0.00;;;13.80;99.90;;;;;;5016308;28;20296;-71
2022/04/14 10:42:12;;;;;;;0.10;0.10;;;13.80;99.90;;;;;;4998760;28;20622;-70
2022/04/14 10:44:47;;;;;;;0.10;0.10;;;13.70;99.90;;;;;;5014436;28;20369;-71
2022/04/14 10:47:33;;;;;;;0.00;0.00;;;13.70;99.90;;;;;;5011721;28;20307;-71
2022/04/14 10:50:00;;;;;;;0.10;0.10;;;13.70;99.90;;;;;;5002289;28;20221;-71
2022/04/14 10:52:28;;;;;;;0.10;0.10;;;13.60;99.90;;;;;;5000478;28;20221;-71
2022/04/14 10:55:00;;;;;;;0.00;0.00;;;13.60;99.90;;;;;;5001737;28;20212;-71
2022/04/14 10:57:42;;;;;;;0.00;0.00;;;13.70;99.90;;;;;;5009263;28;20209;-70
2022/04/14 11:00:36;;;;;;;0.10;0.10;;;13.70;99.90;;;;;;4996351;28;20193;-72
2022/04/14 11:03:05;;;;;;;0.10;0.10;;;13.60;99.90;;;;;;4995618;28;20243;-71
2022/04/14 11:05:45;;;;;;;0.10;0.10;;;13.60;99.90;;;;;;4995537;28;20331;-71
2022/04/14 11:08:33;;;;;;;0.00;0.00;;;13.60;99.90;;;;;;5004066;28;20223;-71
2022/04/14 11:11:13;;;;;;;0.07;0.07;;;14.00;99.90;;;;;;5001247;28;20231;-71
2022/04/14 11:14:11;;;;;;;0.00;0.00;;;13.60;99.90;;;;;;5001327;28;20723;-71
2022/04/14 11:16:44;;;;;;;0.10;0.10;;;13.70;99.90;;;;;;4996195;28;20300;-71
2022/04/14 11:19:30;;;;;;;0.10;0.10;;;13.60;99.90;;;;;;5000579;28;20200;-72
2022/04/14 11:22:09;;;;;;;0.10;0.10;;;13.50;99.90;;;;;;4995595;28;20239;-72
2022/04/14 11:24:45;;;;;;;0.00;0.00;;;13.60;99.90;;;;;;4998614;28;20251;-72
2022/04/14 11:27:21;;;;;;;0.10;0.10;;;13.20;99.90;;;;;;5000107;28;20262;-71
2022/04/14 11:29:51;;;;;;;0.00;0.00;;;13.40;99.90;;;;;;5003533;28;20215;-71
2022/04/14 11:32:36;;;;;;;0.10;0.10;;;13.30;99.90;;;;;;5000488;28;20201;-71
2022/04/14 11:35:13;;;;;;;0.10;0.10;;;13.30;99.90;;;;;;5012939;28;20702;-71
2022/04/14 11:37:41;;;;;;;0.10;0.10;;;13.30;99.90;;;;;;4994804;28;20222;-70
2022/04/14 11:40:17;;;;;;;0.10;0.10;;;13.30;99.90;;;;;;4999956;28;20197;-71
2022/04/14 11:42:54;;;;;;;0.10;0.10;;;13.40;99.90;;;;;;5001690;28;20196;-71
2022/04/14 11:45:23;;;;;;;0.10;0.10;;;13.40;99.90;;;;;;4999607;28;20259;-71
2022/04/14 11:48:13;;;;;;;0.10;0.10;;;13.50;99.90;;;;;;5000250;28;20207;-71
2022/04/14 11:50:43;;;;;;;0.00;0.00;;;13.60;99.90;;;;;;5002997;28;20236;-71
2022/04/14 11:53:10;;;;;;;0.10;0.10;;;13.60;99.90;;;;;;5001111;28;20221;-70
2022/04/14 11:55:39;;;;;;;0.00;0.00;;;13.50;99.90;;;;;;5001905;28;20264;-70
2022/04/14 11:58:07;;;;;;;0.10;0.10;;;13.60;99.90;;;;;;5000738;28;20296;-71
2022/04/14 12:00:44;;;;;;;0.00;0.00;;;13.60;99.90;;;;;;4998465;28;20271;-71
2022/04/14 12:03:11;;;;;;;0.00;0.00;;;13.60;99.90;;;;;;5000658;28;20220;-71
2022/04/14 12:05:38;;;;;;;0.00;0.00;;;13.60;99.90;;;;;;5000269;28;20211;-71
2022/04/14 12:08:10;;;;;;;0.10;0.10;;;13.60;99.90;;;;;;5000934;28;20215;-71
2022/04/14 12:10:37;;;;;;;0.07;0.07;;;13.60;99.90;;;;;;5001872;28;20212;-72
2022/04/14 12:13:08;;;;;;;0.10;0.10;;;13.60;99.90;;;;;;5000898;28;20243;-72
2022/04/14 12:15:36;;;;;;;0.10;0.10;;;13.60;99.90;;;;;;5000712;28;20212;-70
2022/04/14 12:18:09;;;;;;;0.10;0.10;;;13.60;99.90;;;;;;5002206;28;20209;-71
2022/04/14 12:20:37;;;;;;;0.10;0.10;;;13.60;99.90;;;;;;5001973;28;20209;-71
2022/04/14 12:23:07;;;;;;;0.10;0.10;;;13.60;99.90;;;;;;5001130;28;20244;-71
2022/04/14 12:25:35;;;;;;;0.10;0.10;;;13.70;99.90;;;;;;5001842;28;20236;-73
2022/04/14 12:28:03;;;;;;;0.10;0.10;;;13.70;99.90;;;;;;5002106;28;20219;-73
2022/04/14 12:30:32;;;;;;;0.10;0.10;;;13.70;99.90;;;;;;5000982;28;20232;-72
2022/04/14 12:33:04;;;;;;;0.00;0.00;;;13.70;99.90;;;;;;5002075;28;20205;-73
2022/04/14 12:35:34;;;;;;;0.10;0.10;;;13.80;99.90;;;;;;5016912;28;20224;-72
2022/04/14 12:38:16;;;;;;;0.00;0.00;;;13.80;99.90;;;;;;5000781;28;20295;-72
2022/04/14 12:40:54;;;;;;;0.10;0.10;;;13.90;99.90;;;;;;4994958;28;20266;-73
2022/04/14 12:43:22;;;;;;;0.10;0.10;;;13.90;99.90;;;;;;5002167;28;20228;-73
2022/04/14 12:45:50;;;;;;;0.00;0.00;;;14.10;99.90;;;;;;5004235;28;20201;-73
2022/04/14 12:48:26;;;;;;;0.00;0.00;;;14.20;99.90;;;;;;5004644;28;20303;-72
2022/04/14 12:50:58;;;;;;;0.10;0.10;;;14.20;99.90;;;;;;5005274;28;20232;-72
2022/04/14 12:53:26;;;;;;;0.10;0.10;;;14.30;99.90;;;;;;5003047;28;20228;-72
2022/04/14 12:56:10;;;;;;;0.10;0.10;;;14.40;99.90;;;;;;5005525;28;20196;-73
2022/04/14 12:58:37;;;;;;;0.00;0.00;;;14.50;99.90;;;;;;4998611;28;20288;-73